Airfield :
LOGIN :

Register | Disclaimer

   EN    FR    IT 

 










Legend :    VFR   Marginal VFR   IFR   Intensive IFR   Very Intensive IFR
Visi :
Ceiling :
>= 8 km
>= 3000ft
5 to 8 km
1000 to 3000 ft
1500m to 5 km
500 to 1000 ft
800 to 1500m
200 to 500 ft
< 800m
< 200 ft
Symbols :   Thunderstorms  Fog  Heavy snow  Heavy precipitations  Wind > 20 kt
SIGMETs :     Misc.  Thunderstorms  Icing  Turbulence  Mountain Waves  Volcanic Ashes







- Airport Elevation : 778 ft
- IATA code : BRQ


LKTB - Brno-Turany

CURRENT METAR :
  • 270000Z 31009KT 9999 SCT033 05/M00 Q1025 NOSIG

EXPIRED METARs :
  • 262330Z 30011KT 9999 BKN047 06/M00 Q1025 NOSIG
  • 262300Z 31012KT 9999 FEW039 OVC046 06/M01 Q1025 NOSIG
  • 262230Z 31014G24KT 290V350 9999 BKN042 06/M02 Q1024 NOSIG
  • 262221Z 31013G24KT 290V350 9999 SCT042 06/M02 Q1024 RMK REG QNH 1021
  • 262200Z 30011KT CAVOK 07/M03 Q1024 NOSIG
  • 262130Z 29011KT CAVOK 07/M03 Q1024 NOSIG

TAF TAF LKTB
Valid from the 27 at 00:00 until the 28 at 06:00 UTC


262300Z 2700/2806 32012KT 9999 BKN045
TEMPO 2709/2716 35012G22KT
TEMPO 2721/2806 9000 -RA BKN030
No reported NOTAMs for that airfield.



MET'MAP, your aeronautical weather chart ! - Copyright ORBIFLY December 2007 - Disclaimer

ORBIFLY MET'MAP TEAM :

Programming & Development : Alexandra Zaïnal
Concept & Development : Baudouin d'Aumeries
Co-Development & Prog : Marc-Olivier Méhu
Technical & hardware support : Manuel Goepfert

Contact : metmap@orbifly.com




SOURCES & CREDITS :

   NOAA